Time;durP1;ratioP1;P1;durP2;ratioP2;P2;SDS_P1;SDS_P2;PMS_P1;PMS_P2;Temp;Humidity;BMP_temperature;BMP_pressure;BME280_temperature;BME280_humidity;BME280_pressure;Samples;Min_cycle;Max_cycle;Signal;HPM_P1;HPM_P2
2024/01/20 00:00:55;;;;;;;20.00;8.32;;;;;;;4.11;60.02;101630.16;5039368;28;20029;-39
2024/01/20 00:03:20;;;;;;;17.17;8.15;;;;;;;4.10;59.97;101619.75;5039672;28;20037;-38
2024/01/20 00:05:45;;;;;;;18.92;8.10;;;;;;;4.17;60.36;101612.72;5036225;28;21855;-38
2024/01/20 00:08:11;;;;;;;22.45;9.60;;;;;;;4.07;59.69;101610.28;5036222;28;20039;-39
2024/01/20 00:10:36;;;;;;;17.20;7.10;;;;;;;4.03;60.12;101598.16;5040174;28;20055;-37
2024/01/20 00:13:02;;;;;;;15.50;7.38;;;;;;;3.93;59.91;101607.03;5041607;28;20060;-39
2024/01/20 00:15:27;;;;;;;12.93;6.55;;;;;;;4.05;59.71;101601.63;5035133;28;20048;-39
2024/01/20 00:17:52;;;;;;;19.67;7.57;;;;;;;4.09;59.97;101618.03;5039708;28;20033;-38
2024/01/20 00:20:18;;;;;;;15.30;5.90;;;;;;;3.81;60.29;101621.94;5043868;28;20033;-39
2024/01/20 00:22:43;;;;;;;19.00;6.53;;;;;;;4.08;59.70;101613.72;5037410;28;20037;-38
2024/01/20 00:25:08;;;;;;;13.43;5.30;;;;;;;4.03;59.68;101603.38;5019821;28;20036;-39
2024/01/20 00:27:34;;;;;;;24.50;7.95;;;;;;;4.06;59.88;101623.28;5039962;28;20491;-39
2024/01/20 00:29:59;;;;;;;18.70;8.88;;;;;;;4.01;59.86;101609.50;5041016;28;20078;-39
2024/01/20 00:32:24;;;;;;;19.85;7.38;;;;;;;4.01;60.07;101630.34;5043451;28;20055;-38
2024/01/20 00:34:50;;;;;;;16.10;7.78;;;;;;;4.02;59.96;101647.66;5041767;28;20025;-38
2024/01/20 00:37:15;;;;;;;18.42;7.13;;;;;;;3.94;60.29;101625.22;5042101;28;20029;-39
2024/01/20 00:39:40;;;;;;;16.48;7.85;;;;;;;4.04;60.17;101606.81;5039204;28;20028;-38
2024/01/20 00:42:06;;;;;;;17.92;8.20;;;;;;;4.12;60.16;101625.81;5023199;28;20052;-38
2024/01/20 00:44:31;;;;;;;15.23;6.75;;;;;;;3.94;59.99;101635.63;5038045;28;20024;-38
2024/01/20 00:46:56;;;;;;;14.10;6.22;;;;;;;3.86;60.34;101637.47;5040062;28;20108;-38
2024/01/20 00:49:21;;;;;;;15.80;8.13;;;;;;;4.09;60.47;101641.47;5039783;28;20029;-39
2024/01/20 00:51:47;;;;;;;17.90;7.97;;;;;;;4.20;59.78;101631.75;5040646;28;20068;-38
2024/01/20 00:54:12;;;;;;;22.60;7.88;;;;;;;4.22;59.96;101636.94;5036656;28;20442;-38
2024/01/20 00:56:37;;;;;;;18.02;7.70;;;;;;;4.21;59.86;101637.81;5042037;28;20029;-39
2024/01/20 00:59:02;;;;;;;19.58;8.80;;;;;;;4.17;60.48;101637.00;5040087;28;20029;-38
2024/01/20 01:01:28;;;;;;;24.60;7.38;;;;;;;4.10;60.44;101638.00;5047302;28;20048;-38
2024/01/20 01:03:53;;;;;;;12.70;6.55;;;;;;;4.11;60.27;101632.75;5044387;28;20372;-39
2024/01/20 01:06:18;;;;;;;17.38;8.55;;;;;;;4.00;60.51;101637.28;5047415;28;20037;-39
2024/01/20 01:08:43;;;;;;;15.35;7.38;;;;;;;4.20;60.21;101649.13;5030220;28;20463;-39
2024/01/20 01:11:09;;;;;;;17.27;7.88;;;;;;;4.12;60.12;101642.28;5046461;28;20037;-38
2024/01/20 01:13:37;;;;;;;22.42;8.00;;;;;;;4.14;60.42;101647.50;5044585;28;20080;-39
2024/01/20 01:16:03;;;;;;;20.58;7.78;;;;;;;4.20;59.57;101649.97;5028332;28;20498;-39
2024/01/20 01:18:28;;;;;;;15.98;7.07;;;;;;;4.20;60.01;101647.38;5048683;28;20055;-39
2024/01/20 01:20:53;;;;;;;13.47;7.43;;;;;;;4.21;60.18;101651.69;5046943;28;20029;-39
2024/01/20 01:23:18;;;;;;;22.27;7.80;;;;;;;4.22;59.96;101634.34;5044746;28;20313;-38
2024/01/20 01:25:44;;;;;;;14.52;7.35;;;;;;;4.13;60.26;101645.78;5046345;28;20271;-39
2024/01/20 01:28:09;;;;;;;13.90;6.35;;;;;;;4.29;59.94;101650.72;5045464;28;20029;-38
2024/01/20 01:30:34;;;;;;;20.00;7.43;;;;;;;4.33;59.87;101641.94;5045718;28;20029;-39
2024/01/20 01:32:59;;;;;;;13.32;8.00;;;;;;;4.25;59.97;101645.56;5046334;28;20091;-39
2024/01/20 01:35:25;;;;;;;12.57;5.88;;;;;;;4.22;60.04;101650.81;5045105;28;20067;-39
2024/01/20 01:37:50;;;;;;;12.90;7.03;;;;;;;4.21;59.82;101638.69;5048927;28;20036;-39
2024/01/20 01:40:15;;;;;;;15.02;7.95;;;;;;;4.16;60.22;101645.69;5044883;28;20045;-39
2024/01/20 01:42:40;;;;;;;18.92;7.68;;;;;;;4.19;60.07;101656.06;5029767;28;20079;-38
2024/01/20 01:45:06;;;;;;;25.17;10.68;;;;;;;4.05;60.23;101650.22;5046030;28;20084;-38
2024/01/20 01:47:32;;;;;;;18.98;8.00;;;;;;;4.04;60.32;101661.53;5045712;28;20037;-37
2024/01/20 01:49:57;;;;;;;25.00;8.30;;;;;;;4.31;60.19;101669.81;5044189;28;20136;-38
2024/01/20 01:52:23;;;;;;;18.70;7.43;;;;;;;4.36;60.09;101660.13;5044943;28;20060;-39
2024/01/20 01:54:49;;;;;;;19.52;8.70;;;;;;;4.35;59.64;101664.50;5048560;28;20440;-39
2024/01/20 01:57:16;;;;;;;16.52;7.22;;;;;;;4.34;59.65;101654.09;5041281;28;20090;-38
2024/01/20 01:59:42;;;;;;;17.25;8.00;;;;;;;4.46;59.58;101653.03;5041273;28;20029;-38
2024/01/20 02:02:08;;;;;;;17.33;6.45;;;;;;;4.51;59.36;101659.88;5040358;28;20025;-39
2024/01/20 02:04:33;;;;;;;14.00;8.45;;;;;;;4.30;59.58;101665.47;5043649;28;20034;-38
2024/01/20 02:06:58;;;;;;;10.15;3.90;;;;;;;4.55;59.52;101647.66;5029229;28;20087;-38
2024/01/20 02:09:25;;;;;;;14.73;7.75;;;;;;;4.29;60.13;101667.19;5046418;28;20401;-39
2024/01/20 02:11:51;;;;;;;25.58;7.82;;;;;;;4.25;60.42;101658.59;5045371;28;20037;-38
2024/01/20 02:14:18;;;;;;;18.80;6.40;;;;;;;4.08;60.87;101671.88;5041249;28;20040;-39
2024/01/20 02:16:43;;;;;;;26.85;10.10;;;;;;;4.18;60.52;101672.59;5047552;28;20055;-38
2024/01/20 02:19:09;;;;;;;19.08;9.32;;;;;;;4.14;60.48;101686.56;5026980;28;20033;-38
2024/01/20 02:21:36;;;;;;;10.25;5.20;;;;;;;4.14;60.62;101693.50;5045359;28;20037;-38
2024/01/20 02:24:04;;;;;;;17.80;6.97;;;;;;;4.20;60.53;101704.69;5030501;28;20432;-38
2024/01/20 02:26:29;;;;;;;16.42;9.05;;;;;;;4.19;60.91;101696.91;5042445;28;20071;-39
2024/01/20 02:28:54;;;;;;;16.58;8.00;;;;;;;4.27;60.35;101690.69;5044018;28;20060;-39
2024/01/20 02:31:20;;;;;;;21.55;8.02;;;;;;;4.32;60.17;101702.75;5047198;28;20476;-39
2024/01/20 02:33:45;;;;;;;17.10;8.32;;;;;;;4.34;60.34;101701.00;5045108;28;20077;-40
2024/01/20 02:36:10;;;;;;;14.68;8.30;;;;;;;4.30;60.50;101694.13;5046495;28;20033;-39
2024/01/20 02:38:35;;;;;;;13.77;7.32;;;;;;;4.43;59.99;101711.28;5045514;28;20033;-39
2024/01/20 02:41:01;;;;;;;14.15;6.82;;;;;;;4.50;60.24;101718.09;5046099;28;20044;-39
2024/01/20 02:43:26;;;;;;;16.17;7.55;;;;;;;4.54;59.89;101713.69;5043708;28;20710;-39
2024/01/20 02:45:51;;;;;;;13.45;7.13;;;;;;;4.52;60.28;101718.94;5028057;28;20044;-39
2024/01/20 02:48:17;;;;;;;17.80;8.07;;;;;;;4.50;60.27;101715.50;5045445;28;20368;-38
2024/01/20 02:50:42;;;;;;;12.10;6.45;;;;;;;4.44;60.29;101710.41;5047910;28;20080;-38
2024/01/20 02:53:07;;;;;;;12.07;7.70;;;;;;;4.40;60.74;101721.75;5045000;28;20025;-38
2024/01/20 02:55:32;;;;;;;13.82;6.63;;;;;;;4.30;60.33;101728.00;5046307;28;20029;-38
2024/01/20 02:57:58;;;;;;;16.98;8.23;;;;;;;4.51;60.17;101721.59;5045829;28;20089;-39
2024/01/20 03:00:23;;;;;;;18.23;8.32;;;;;;;4.57;60.26;101718.84;5043672;28;20504;-39
2024/01/20 03:02:49;;;;;;;13.57;7.20;;;;;;;4.42;60.18;101723.44;5041430;28;20404;-39
2024/01/20 03:05:14;;;;;;;15.80;8.45;;;;;;;4.53;60.05;101728.50;5034889;28;20040;-39
2024/01/20 03:07:39;;;;;;;15.15;7.97;;;;;;;4.60;59.93;101739.66;5042575;28;20122;-38
2024/01/20 03:10:05;;;;;;;22.67;8.20;;;;;;;4.61;60.22;101743.16;5046748;28;20396;-38
2024/01/20 03:12:30;;;;;;;18.17;8.45;;;;;;;4.65;59.97;101750.00;5045149;28;20029;-39
2024/01/20 03:14:56;;;;;;;23.98;9.48;;;;;;;4.65;60.26;101726.56;5045587;28;20048;-38
2024/01/20 03:17:21;;;;;;;15.57;8.35;;;;;;;4.53;59.94;101732.84;5039081;28;20024;-38
2024/01/20 03:19:46;;;;;;;18.80;8.73;;;;;;;4.52;59.89;101739.78;5047473;28;20043;-39
2024/01/20 03:22:12;;;;;;;17.30;6.93;;;;;;;4.67;60.12;101730.88;5044536;28;20483;-39
2024/01/20 03:24:37;;;;;;;20.23;9.95;;;;;;;4.49;60.29;101736.38;5039405;28;20039;-39
2024/01/20 03:27:02;;;;;;;19.30;8.82;;;;;;;4.45;60.51;101735.59;5045409;28;20048;-38
2024/01/20 03:29:28;;;;;;;19.90;9.02;;;;;;;4.63;59.94;101707.47;5043240;28;20075;-38
2024/01/20 03:31:53;;;;;;;9.05;5.57;;;;;;;4.47;60.05;101715.53;5042376;28;20033;-39
2024/01/20 03:34:18;;;;;;;13.70;5.85;;;;;;;4.55;60.10;101729.31;5043681;28;20119;-39
2024/01/20 03:36:44;;;;;;;10.93;6.10;;;;;;;4.52;60.14;101723.31;5045855;28;20029;-39
2024/01/20 03:39:10;;;;;;;19.80;8.15;;;;;;;4.46;60.27;101731.22;5046427;28;20052;-39
2024/01/20 03:41:35;;;;;;;13.93;7.35;;;;;;;4.42;60.35;101740.84;5044510;28;20047;-39
2024/01/20 03:44:00;;;;;;;20.95;9.35;;;;;;;4.46;60.21;101746.84;5042322;28;20644;-39
2024/01/20 03:46:26;;;;;;;18.38;8.40;;;;;;;4.45;60.30;101742.53;5023145;28;20033;-39
2024/01/20 03:48:51;;;;;;;19.45;9.02;;;;;;;4.63;60.03;101733.53;5011914;28;20045;-38
2024/01/20 03:51:17;;;;;;;25.33;8.73;;;;;;;4.56;59.98;101728.44;5045936;28;20504;-40
2024/01/20 03:53:42;;;;;;;19.38;8.18;;;;;;;4.64;59.87;101724.81;5042020;28;20059;-39
2024/01/20 03:56:07;;;;;;;17.10;7.28;;;;;;;4.53;59.49;101736.31;5031333;28;20166;-39
2024/01/20 03:58:32;;;;;;;18.15;8.68;;;;;;;4.67;59.32;101732.59;5045708;28;20040;-39
2024/01/20 04:00:58;;;;;;;13.73;6.63;;;;;;;4.58;59.93;101729.28;5007957;28;20029;-39
2024/01/20 04:03:23;;;;;;;17.98;7.88;;;;;;;4.58;59.67;101726.66;5046954;28;20017;-39
2024/01/20 04:05:48;;;;;;;18.20;8.50;;;;;;;4.22;60.23;101734.19;5038315;28;20195;-39
2024/01/20 04:08:14;;;;;;;20.65;7.15;;;;;;;4.36;60.29;101751.34;5040257;28;20040;-38
2024/01/20 04:10:39;;;;;;;18.98;8.88;;;;;;;4.29;60.39;101749.75;5038566;28;20032;-38
2024/01/20 04:13:05;;;;;;;17.73;7.97;;;;;;;4.45;60.16;101732.09;5043435;28;20066;-38
2024/01/20 04:15:30;;;;;;;14.38;7.75;;;;;;;4.42;60.25;101738.22;5041402;28;20080;-38
2024/01/20 04:17:55;;;;;;;17.35;9.15;;;;;;;4.50;60.27;101752.00;5045727;28;20028;-38
2024/01/20 04:20:21;;;;;;;16.65;7.07;;;;;;;4.30;60.13;101746.25;5041718;28;20025;-38
2024/01/20 04:22:46;;;;;;;20.23;8.55;;;;;;;4.38;60.28;101755.69;5044636;28;20041;-38
2024/01/20 04:25:12;;;;;;;16.17;8.48;;;;;;;4.35;60.06;101753.09;5041690;28;20059;-39
2024/01/20 04:27:40;;;;;;;18.48;9.40;;;;;;;4.43;60.40;101786.88;5043753;28;20039;-39
2024/01/20 04:30:07;;;;;;;20.73;9.90;;;;;;;4.47;59.84;101759.00;5039801;28;20504;-39
2024/01/20 04:32:32;;;;;;;18.83;8.43;;;;;;;4.49;59.86;101776.34;5041166;28;20048;-38
2024/01/20 04:34:57;;;;;;;19.27;10.00;;;;;;;4.33;60.35;101780.06;5043603;28;20040;-39
2024/01/20 04:37:23;;;;;;;14.55;7.95;;;;;;;4.44;60.20;101759.94;5048077;28;20043;-38
2024/01/20 04:39:48;;;;;;;15.40;7.20;;;;;;;4.54;60.11;101761.50;5046589;28;20542;-38
2024/01/20 04:42:13;;;;;;;16.70;8.00;;;;;;;4.45;60.06;101772.06;5047371;28;20074;-38
2024/01/20 04:44:38;;;;;;;16.05;7.43;;;;;;;4.42;60.64;101772.97;5045475;28;20052;-38
2024/01/20 04:47:04;;;;;;;18.23;7.93;;;;;;;4.50;60.26;101759.81;5046699;28;20037;-39
2024/01/20 04:49:29;;;;;;;19.45;8.93;;;;;;;4.47;60.16;101754.63;5050670;28;20091;-38
2024/01/20 04:51:55;;;;;;;22.50;8.85;;;;;;;4.45;60.37;101782.50;5050785;28;20033;-39
2024/01/20 04:54:20;;;;;;;17.23;8.80;;;;;;;4.46;60.10;101771.19;5049676;28;20035;-39
2024/01/20 04:56:45;;;;;;;14.23;8.52;;;;;;;4.32;60.25;101787.03;5048999;28;20068;-37
2024/01/20 04:59:10;;;;;;;16.05;8.00;;;;;;;4.35;60.23;101791.31;5050445;28;20458;-39
2024/01/20 05:01:36;;;;;;;19.70;8.85;;;;;;;4.52;60.10;101786.72;5046843;28;20033;-38
2024/01/20 05:04:01;;;;;;;15.93;7.53;;;;;;;4.36;60.07;101782.63;5047291;28;20048;-40
2024/01/20 05:06:26;;;;;;;19.08;7.53;;;;;;;4.49;60.37;101793.72;5048781;28;20036;-38
2024/01/20 05:08:51;;;;;;;17.38;8.57;;;;;;;4.33;60.10;101814.81;5050309;28;20033;-38
2024/01/20 05:11:17;;;;;;;26.15;9.02;;;;;;;4.50;60.17;101805.88;5050734;28;20584;-39
2024/01/20 05:13:42;;;;;;;20.17;9.20;;;;;;;4.38;60.32;101799.09;5046287;28;20029;-39
2024/01/20 05:16:07;;;;;;;18.05;7.93;;;;;;;4.36;60.34;101811.28;5042212;28;20535;-38
2024/01/20 05:18:32;;;;;;;20.15;8.55;;;;;;;4.39;60.62;101806.88;5043885;28;20025;-39
2024/01/20 05:20:58;;;;;;;18.63;8.77;;;;;;;4.34;60.28;101815.66;5049228;28;20036;-38
2024/01/20 05:23:23;;;;;;;15.77;7.57;;;;;;;4.37;60.44;101820.81;5050643;28;20438;-38
2024/01/20 05:25:49;;;;;;;12.43;7.65;;;;;;;4.29;60.62;101812.28;5050495;28;20037;-38
2024/01/20 05:28:14;;;;;;;18.55;9.38;;;;;;;4.47;60.41;101811.13;5053050;28;20025;-38
2024/01/20 05:30:40;;;;;;;10.93;7.35;;;;;;;4.39;60.40;101819.06;5044481;28;20120;-38
2024/01/20 05:33:07;;;;;;;12.25;6.32;;;;;;;4.26;60.64;101820.97;5049542;28;20068;-39
2024/01/20 05:35:32;;;;;;;25.60;10.10;;;;;;;4.50;60.41;101830.19;5049099;28;20601;-39
2024/01/20 05:37:57;;;;;;;17.83;9.35;;;;;;;4.44;60.81;101825.09;5050719;28;20032;-38
2024/01/20 05:40:23;;;;;;;21.17;8.65;;;;;;;4.55;60.37;101820.56;5048360;28;20426;-38
2024/01/20 05:42:48;;;;;;;21.83;8.57;;;;;;;4.65;60.14;101823.00;5046212;28;20037;-39
2024/01/20 05:45:14;;;;;;;17.42;9.48;;;;;;;4.58;60.22;101833.56;5048227;28;20033;-38
2024/01/20 05:47:40;;;;;;;11.70;7.40;;;;;;;4.66;60.32;101822.13;5043563;28;20521;-39
2024/01/20 05:50:06;;;;;;;18.70;8.95;;;;;;;4.64;59.93;101835.22;5044943;28;20068;-39
2024/01/20 05:52:31;;;;;;;25.38;11.32;;;;;;;4.70;60.43;101847.28;5043837;28;20502;-39
2024/01/20 05:54:56;;;;;;;18.90;9.45;;;;;;;4.70;60.45;101850.72;5037091;28;20044;-40
2024/01/20 05:57:23;;;;;;;20.80;8.15;;;;;;;4.58;60.23;101846.59;5039399;28;20035;-39
2024/01/20 05:59:49;;;;;;;23.42;9.90;;;;;;;4.68;60.24;101841.22;5041111;28;20028;-39
2024/01/20 06:02:14;;;;;;;21.25;10.70;;;;;;;4.62;60.34;101830.88;5042554;28;20029;-39
2024/01/20 06:04:39;;;;;;;18.48;10.35;;;;;;;4.64;60.44;101835.22;5041839;28;20531;-38
2024/01/20 06:07:05;;;;;;;20.10;9.80;;;;;;;4.67;60.32;101834.28;5039796;28;20041;-39
2024/01/20 06:09:30;;;;;;;12.98;7.10;;;;;;;4.66;60.36;101833.44;5045859;28;20041;-39
2024/01/20 06:11:55;;;;;;;25.88;10.73;;;;;;;4.63;60.17;101832.59;5043119;28;20065;-38
2024/01/20 06:14:20;;;;;;;19.58;9.25;;;;;;;4.72;60.00;101829.88;5045967;28;20619;-39
2024/01/20 06:16:46;;;;;;;23.20;9.93;;;;;;;4.76;59.87;101828.94;5046236;28;20028;-39
2024/01/20 06:19:11;;;;;;;18.90;9.82;;;;;;;4.80;60.24;101837.56;5044653;28;20040;-39
2024/01/20 06:21:36;;;;;;;21.73;9.85;;;;;;;4.79;60.20;101833.25;5048985;28;20085;-39
2024/01/20 06:24:02;;;;;;;9.77;5.75;;;;;;;4.64;60.47;101834.31;5044278;28;20041;-39
2024/01/20 06:26:28;;;;;;;27.17;10.52;;;;;;;4.80;60.44;101832.34;5047541;28;20039;-38
2024/01/20 06:28:53;;;;;;;19.13;9.98;;;;;;;4.75;60.30;101835.03;5042310;28;20026;-39
2024/01/20 06:31:25;;;;;;;24.20;8.80;;;;;;;4.75;60.26;101821.13;5047006;28;20078;-39
2024/01/20 06:33:52;;;;;;;17.15;8.60;;;;;;;4.83;60.15;101833.16;5040880;28;20037;-39
2024/01/20 06:36:17;;;;;;;24.63;9.80;;;;;;;4.70;60.17;101849.88;5047355;28;20778;-38
2024/01/20 06:38:43;;;;;;;19.35;9.50;;;;;;;4.81;60.29;101831.47;5047257;28;20025;-38
2024/01/20 06:41:08;;;;;;;21.13;10.00;;;;;;;4.79;60.56;101844.53;5045337;28;20028;-39
2024/01/20 06:43:34;;;;;;;21.00;9.65;;;;;;;4.70;60.61;101834.25;5046043;28;20087;-39
2024/01/20 06:46:00;;;;;;;22.13;9.30;;;;;;;4.66;60.66;101843.00;5041042;28;20436;-38
2024/01/20 06:48:26;;;;;;;17.42;9.98;;;;;;;4.66;60.79;101849.09;5045945;28;20443;-39
2024/01/20 06:50:51;;;;;;;18.17;8.25;;;;;;;4.73;60.61;101847.25;5044229;28;20029;-39
2024/01/20 06:53:16;;;;;;;23.73;9.05;;;;;;;4.71;60.75;101831.59;5044553;28;20033;-39
2024/01/20 06:55:42;;;;;;;18.75;9.55;;;;;;;4.58;61.12;101840.50;5040742;28;20029;-38
2024/01/20 06:58:08;;;;;;;25.45;9.48;;;;;;;4.52;60.79;101857.09;5047835;28;20037;-39
2024/01/20 07:00:33;;;;;;;24.63;10.77;;;;;;;4.69;60.77;101864.66;5045161;28;20534;-39
2024/01/20 07:02:59;;;;;;;21.77;10.57;;;;;;;4.81;60.53;101876.66;5043520;28;20037;-38
2024/01/20 07:05:24;;;;;;;21.00;8.95;;;;;;;4.64;60.88;101876.03;5042188;28;20029;-38
2024/01/20 07:07:49;;;;;;;23.27;9.65;;;;;;;4.72;60.73;101876.81;5046177;28;20039;-38
2024/01/20 07:10:14;;;;;;;18.73;9.98;;;;;;;4.71;60.28;101883.75;5044137;28;20384;-38
2024/01/20 07:12:40;;;;;;;20.77;9.77;;;;;;;4.72;60.53;101874.19;5044273;28;20029;-39
2024/01/20 07:15:08;;;;;;;19.30;9.63;;;;;;;4.87;60.14;101878.31;5041677;28;20463;-39
2024/01/20 07:17:34;;;;;;;16.80;8.63;;;;;;;4.79;60.59;101865.38;5043227;28;20435;-39
2024/01/20 07:19:59;;;;;;;24.35;10.18;;;;;;;4.88;60.02;101883.50;5036354;28;20069;-39
2024/01/20 07:22:25;;;;;;;16.73;10.68;;;;;;;5.00;59.69;101877.22;5044410;28;20436;-38
2024/01/20 07:24:50;;;;;;;19.75;9.65;;;;;;;4.97;59.74;101873.81;5040866;28;20039;-39
2024/01/20 07:27:15;;;;;;;11.48;5.97;;;;;;;4.79;59.91;101875.81;5049021;28;20147;-38
2024/01/20 07:29:41;;;;;;;20.88;10.30;;;;;;;4.97;59.92;101879.03;5043811;28;20053;-38
2024/01/20 07:32:07;;;;;;;20.02;8.40;;;;;;;4.94;59.92;101874.72;5043535;28;20059;-40
2024/01/20 07:34:32;;;;;;;10.57;6.13;;;;;;;4.92;59.99;101873.00;5027553;28;20064;-39
2024/01/20 07:36:57;;;;;;;22.02;8.82;;;;;;;4.98;59.89;101886.84;5047827;28;20086;-38
2024/01/20 07:39:22;;;;;;;20.27;8.45;;;;;;;4.94;59.73;101879.94;5041604;28;20037;-39
2024/01/20 07:41:48;;;;;;;17.27;8.43;;;;;;;5.00;59.67;101889.41;5041747;28;20037;-38
2024/01/20 07:44:13;;;;;;;26.38;10.63;;;;;;;5.02;59.37;101890.25;5042146;28;20286;-39
2024/01/20 07:46:38;;;;;;;14.00;6.40;;;;;;;5.10;59.26;101896.19;5044678;28;20496;-39
2024/01/20 07:49:03;;;;;;;16.60;8.75;;;;;;;4.99;59.49;101901.56;5041412;28;20025;-39
2024/01/20 07:51:29;;;;;;;24.73;10.38;;;;;;;5.03;59.16;101891.97;5047313;28;20045;-39
2024/01/20 07:53:54;;;;;;;24.02;10.93;;;;;;;5.18;58.97;101893.47;5029736;28;20036;-39
2024/01/20 07:56:19;;;;;;;19.75;9.80;;;;;;;5.06;59.47;101898.88;5043618;28;20025;-39
2024/01/20 07:58:45;;;;;;;19.52;8.82;;;;;;;5.17;59.20;101904.78;5036460;28;20040;-39
2024/01/20 08:01:10;;;;;;;19.67;9.00;;;;;;;5.02;59.73;101925.03;5045053;28;20522;-39
2024/01/20 08:03:35;;;;;;;18.83;8.23;;;;;;;5.13;59.41;101914.41;5045399;28;20057;-38
2024/01/20 08:06:00;;;;;;;13.95;6.47;;;;;;;5.08;59.02;101918.84;5044239;28;20071;-39
2024/01/20 08:08:26;;;;;;;26.15;9.85;;;;;;;5.25;59.40;101904.66;5044181;28;20450;-39
2024/01/20 08:10:51;;;;;;;19.88;9.27;;;;;;;5.15;59.23;101917.88;5046211;28;20158;-39
2024/01/20 08:13:17;;;;;;;24.33;10.82;;;;;;;5.23;59.19;101912.53;5043633;28;20091;-38
2024/01/20 08:15:42;;;;;;;18.45;9.63;;;;;;;5.27;59.52;101928.97;5043982;28;20035;-39
2024/01/20 08:18:07;;;;;;;19.47;9.13;;;;;;;5.21;59.02;101924.72;5031586;28;20502;-39
2024/01/20 08:20:33;;;;;;;17.05;9.57;;;;;;;5.27;59.07;101923.75;5043614;28;20276;-39
2024/01/20 08:22:58;;;;;;;18.00;8.55;;;;;;;5.40;59.21;101930.50;5044679;28;20025;-40
2024/01/20 08:25:23;;;;;;;13.45;7.45;;;;;;;5.21;59.09;101929.09;5019146;28;20037;-40
2024/01/20 08:27:49;;;;;;;22.58;9.15;;;;;;;5.22;59.10;101947.34;5044896;28;20039;-40
2024/01/20 08:30:14;;;;;;;25.60;9.23;;;;;;;5.21;59.24;101937.78;5043382;28;20021;-39
2024/01/20 08:32:40;;;;;;;24.05;10.32;;;;;;;5.19;59.34;101945.66;5045908;28;20065;-39
2024/01/20 08:35:05;;;;;;;21.83;9.63;;;;;;;5.33;58.96;101944.56;5043712;28;20029;-39
2024/01/20 08:37:31;;;;;;;26.77;10.40;;;;;;;5.38;59.07;101953.16;5044317;28;20029;-39
2024/01/20 08:39:56;;;;;;;24.00;9.15;;;;;;;5.49;59.31;101951.25;5041518;28;20090;-39
2024/01/20 08:42:21;;;;;;;18.65;9.55;;;;;;;5.52;59.36;101955.53;5048013;28;20040;-40
2024/01/20 08:44:47;;;;;;;16.50;8.20;;;;;;;5.46;59.13;101945.19;5040828;28;20029;-40
2024/01/20 08:47:12;;;;;;;12.65;8.50;;;;;;;5.32;59.20;101961.94;5041188;28;20069;-39
2024/01/20 08:49:37;;;;;;;23.77;9.10;;;;;;;5.41;58.99;101947.88;5043424;28;20067;-40
2024/01/20 08:52:03;;;;;;;12.57;7.85;;;;;;;5.42;58.99;101959.22;5046139;28;20037;-39
2024/01/20 08:54:28;;;;;;;20.10;8.15;;;;;;;5.51;58.98;101963.41;5058091;22;20490;-42
2024/01/20 08:56:53;;;;;;;19.67;8.83;;;;;;;5.64;59.02;101963.16;5047004;28;20032;-40
2024/01/20 08:59:19;;;;;;;16.42;8.48;;;;;;;5.49;59.17;101966.91;5040821;28;20788;-42
2024/01/20 09:01:45;;;;;;;21.13;8.52;;;;;;;5.50;58.70;101965.16;4995307;28;20103;-43
2024/01/20 09:04:10;;;;;;;26.27;11.38;;;;;;;5.56;58.63;101978.13;5041030;28;20163;-45
2024/01/20 09:06:35;;;;;;;16.40;7.25;;;;;;;5.49;58.91;101987.81;5039954;28;20064;-41
2024/01/20 09:09:01;;;;;;;18.50;7.80;;;;;;;5.59;58.65;101998.06;5043187;28;20041;-40
2024/01/20 09:11:27;;;;;;;17.27;6.13;;;;;;;5.63;58.56;101974.50;5038995;28;20582;-42
2024/01/20 09:13:53;;;;;;;14.95;7.32;;;;;;;5.56;58.69;101982.47;5026177;28;20051;-42
2024/01/20 09:16:18;;;;;;;16.90;8.05;;;;;;;5.62;58.42;101979.75;5025409;28;20498;-42
2024/01/20 09:18:43;;;;;;;10.43;5.28;;;;;;;5.64;58.30;101989.28;5037283;28;20029;-39
2024/01/20 09:21:11;;;;;;;18.00;7.93;;;;;;;5.56;58.93;101998.13;5040880;28;20041;-40
2024/01/20 09:23:37;;;;;;;18.25;7.70;;;;;;;5.64;58.63;101988.44;5040713;28;20025;-39
2024/01/20 09:26:02;;;;;;;26.48;11.63;;;;;;;5.57;58.77;101989.41;5050205;28;20416;-40
2024/01/20 09:28:28;;;;;;;17.80;8.95;;;;;;;5.74;58.15;101992.59;5047209;28;21171;-40
2024/01/20 09:30:53;;;;;;;15.23;8.10;;;;;;;5.64;57.98;101994.50;5042238;28;20037;-42
2024/01/20 09:33:18;;;;;;;21.00;8.35;;;;;;;5.68;57.96;101997.06;5042351;28;20430;-43
2024/01/20 09:35:43;;;;;;;15.57;9.27;;;;;;;5.83;58.29;102006.38;5044605;28;20032;-42
2024/01/20 09:38:09;;;;;;;14.50;7.43;;;;;;;5.79;57.99;102022.13;5046937;28;20036;-40
2024/01/20 09:40:35;;;;;;;20.83;8.38;;;;;;;5.84;58.22;102008.97;5039686;28;20287;-40
2024/01/20 09:43:01;;;;;;;17.88;8.40;;;;;;;5.75;58.19;102010.00;5037151;28;20043;-40
2024/01/20 09:45:27;;;;;;;15.60;8.18;;;;;;;5.72;58.44;102015.25;5043601;28;20037;-39
2024/01/20 09:47:52;;;;;;;23.27;9.77;;;;;;;5.80;57.72;102013.41;5042591;28;20742;-40
2024/01/20 09:50:18;;;;;;;17.45;7.82;;;;;;;5.95;58.07;102011.41;5045330;28;20037;-40
2024/01/20 09:52:57;;;;;;;20.00;8.55;;;;;;;5.90;57.74;102019.28;5038152;28;20021;-41
2024/01/20 09:55:23;;;;;;;18.88;7.18;;;;;;;5.76;57.96;102024.78;5043823;28;20488;-42
2024/01/20 09:57:52;;;;;;;11.43;4.72;;;;;;;5.51;58.00;102018.25;5037030;28;20044;-41
2024/01/20 10:00:20;;;;;;;18.02;8.48;;;;;;;5.76;57.96;102019.56;5044964;28;20025;-40
2024/01/20 10:02:46;;;;;;;17.42;6.57;;;;;;;5.73;58.26;102017.00;5041785;28;20055;-40
2024/01/20 10:05:13;;;;;;;22.20;8.48;;;;;;;5.90;57.64;102016.69;5044586;28;20037;-40
2024/01/20 10:07:39;;;;;;;19.88;9.48;;;;;;;5.82;57.98;102012.50;5039217;28;21157;-41
2024/01/20 10:10:09;;;;;;;18.88;8.65;;;;;;;5.94;57.71;102012.28;5041429;28;20458;-42
2024/01/20 10:12:36;;;;;;;15.13;7.65;;;;;;;5.84;58.07;102014.19;5059435;28;20126;-42
2024/01/20 10:15:01;;;;;;;15.60;7.53;;;;;;;5.80;58.02;101996.84;5044269;28;20032;-40
2024/01/20 10:17:26;;;;;;;15.73;7.77;;;;;;;5.93;57.34;101989.66;5044345;28;20043;-40
2024/01/20 10:19:51;;;;;;;19.57;7.67;;;;;;;5.91;57.23;101999.28;5046685;28;20289;-40
2024/01/20 10:22:17;;;;;;;20.00;7.10;;;;;;;5.95;57.60;101993.13;5042417;28;20275;-40
2024/01/20 10:25:00;;;;;;;21.08;9.38;;;;;;;6.12;57.40;102007.66;5038920;28;20310;-40
2024/01/20 10:27:25;;;;;;;18.00;8.88;;;;;;;5.98;57.25;102034.84;5037556;28;20036;-40
2024/01/20 10:29:50;;;;;;;16.77;8.40;;;;;;;5.98;57.50;102027.00;5039082;28;20024;-40
2024/01/20 10:32:16;;;;;;;19.27;6.65;;;;;;;6.05;57.11;102022.59;5039660;28;20069;-40
2024/01/20 10:34:42;;;;;;;21.55;9.57;;;;;;;5.94;57.54;102026.19;5042979;28;20141;-40
2024/01/20 10:37:12;;;;;;;18.98;8.52;;;;;;;5.97;57.45;102009.63;5045110;28;20040;-39
2024/01/20 10:39:45;;;;;;;12.70;5.55;;;;;;;5.86;57.71;102027.22;5044291;28;20156;-40
2024/01/20 10:42:14;;;;;;;22.85;7.65;;;;;;;5.97;57.53;102025.31;5044206;28;20054;-39
2024/01/20 10:45:08;;;;;;;20.95;6.93;;;;;;;6.05;57.16;102044.34;5042851;28;20152;-38
2024/01/20 10:47:40;;;;;;;15.25;7.35;;;;;;;5.85;57.48;102023.75;5037937;28;20037;-38
2024/01/20 10:50:07;;;;;;;23.80;8.38;;;;;;;5.86;58.04;102028.09;5044143;28;20029;-40
2024/01/20 10:52:34;;;;;;;18.38;6.68;;;;;;;5.74;57.87;102041.38;5045719;28;20037;-39
2024/01/20 10:55:01;;;;;;;12.75;5.93;;;;;;;5.76;57.95;102030.00;5045735;28;20406;-40
2024/01/20 10:57:27;;;;;;;18.23;7.40;;;;;;;5.82;57.99;102046.47;5045187;28;20094;-40
2024/01/20 10:59:53;;;;;;;18.30;7.00;;;;;;;6.00;57.50;102035.72;5043103;28;20025;-40
2024/01/20 11:02:21;;;;;;;11.43;5.43;;;;;;;5.79;57.90;102053.47;5042595;28;20029;-40
2024/01/20 11:04:46;;;;;;;20.33;8.35;;;;;;;5.90;57.35;102028.91;5044962;28;20352;-39
2024/01/20 11:07:12;;;;;;;24.25;8.07;;;;;;;5.91;57.70;102035.84;5024567;28;20079;-40
2024/01/20 11:09:38;;;;;;;17.33;6.90;;;;;;;5.75;57.73;102046.56;5047484;28;20036;-40
2024/01/20 11:12:07;;;;;;;19.30;8.98;;;;;;;5.91;57.55;102030.63;5047230;28;20029;-39
2024/01/20 11:14:34;;;;;;;18.95;7.30;;;;;;;5.92;57.78;102037.56;5033570;28;20045;-41
2024/01/20 11:17:13;;;;;;;17.33;7.25;;;;;;;5.77;57.46;102033.47;5041935;28;20028;-40